sensor_id;sensor_type;location;lat;lon;timestamp;P1;durP1;ratioP1;P2;durP2;ratioP2
795;SDS011;381;48.770;9.188;2024-03-02T00:01:21;0.70;;;0.70;;
795;SDS011;381;48.770;9.188;2024-03-02T00:06:24;0.50;;;0.50;;
795;SDS011;381;48.770;9.188;2024-03-02T00:11:27;0.70;;;0.70;;
795;SDS011;381;48.770;9.188;2024-03-02T00:16:29;0.60;;;0.60;;
795;SDS011;381;48.770;9.188;2024-03-02T00:21:33;0.60;;;0.60;;
795;SDS011;381;48.770;9.188;2024-03-02T00:26:36;0.50;;;0.50;;
795;SDS011;381;48.770;9.188;2024-03-02T00:31:39;0.60;;;0.60;;
795;SDS011;381;48.770;9.188;2024-03-02T00:36:43;0.50;;;0.50;;
795;SDS011;381;48.770;9.188;2024-03-02T00:41:46;0.50;;;0.50;;
795;SDS011;381;48.770;9.188;2024-03-02T00:46:49;0.50;;;0.50;;
795;SDS011;381;48.770;9.188;2024-03-02T00:51:53;0.57;;;0.57;;
795;SDS011;381;48.770;9.188;2024-03-02T00:56:55;0.50;;;0.50;;
795;SDS011;381;48.770;9.188;2024-03-02T01:01:59;0.50;;;0.50;;
795;SDS011;381;48.770;9.188;2024-03-02T01:07:03;0.50;;;0.50;;
795;SDS011;381;48.770;9.188;2024-03-02T01:12:06;0.60;;;0.60;;
795;SDS011;381;48.770;9.188;2024-03-02T01:17:09;0.50;;;0.50;;
795;SDS011;381;48.770;9.188;2024-03-02T01:22:12;0.60;;;0.60;;
795;SDS011;381;48.770;9.188;2024-03-02T01:27:15;0.60;;;0.60;;
795;SDS011;381;48.770;9.188;2024-03-02T01:32:17;0.50;;;0.50;;
795;SDS011;381;48.770;9.188;2024-03-02T01:37:21;0.70;;;0.70;;
795;SDS011;381;48.770;9.188;2024-03-02T01:42:23;0.50;;;0.50;;
795;SDS011;381;48.770;9.188;2024-03-02T01:47:25;0.60;;;0.60;;
795;SDS011;381;48.770;9.188;2024-03-02T01:52:29;0.60;;;0.60;;
795;SDS011;381;48.770;9.188;2024-03-02T01:57:32;0.60;;;0.60;;
795;SDS011;381;48.770;9.188;2024-03-02T02:02:34;0.50;;;0.50;;
795;SDS011;381;48.770;9.188;2024-03-02T02:07:38;0.50;;;0.50;;
795;SDS011;381;48.770;9.188;2024-03-02T02:12:41;0.50;;;0.50;;
795;SDS011;381;48.770;9.188;2024-03-02T02:17:44;0.50;;;0.50;;
795;SDS011;381;48.770;9.188;2024-03-02T02:22:58;0.50;;;0.50;;
795;SDS011;381;48.770;9.188;2024-03-02T02:28:01;0.60;;;0.60;;
795;SDS011;381;48.770;9.188;2024-03-02T02:33:03;0.50;;;0.50;;
795;SDS011;381;48.770;9.188;2024-03-02T02:38:07;0.50;;;0.50;;
795;SDS011;381;48.770;9.188;2024-03-02T02:43:10;0.53;;;0.53;;
795;SDS011;381;48.770;9.188;2024-03-02T02:48:12;0.60;;;0.60;;
795;SDS011;381;48.770;9.188;2024-03-02T02:53:16;0.70;;;0.70;;
795;SDS011;381;48.770;9.188;2024-03-02T02:58:18;0.73;;;0.73;;
795;SDS011;381;48.770;9.188;2024-03-02T03:03:20;0.77;;;0.77;;
795;SDS011;381;48.770;9.188;2024-03-02T03:08:24;0.70;;;0.70;;
795;SDS011;381;48.770;9.188;2024-03-02T03:13:26;0.80;;;0.80;;
795;SDS011;381;48.770;9.188;2024-03-02T03:18:29;0.70;;;0.70;;
795;SDS011;381;48.770;9.188;2024-03-02T03:23:32;0.70;;;0.70;;
795;SDS011;381;48.770;9.188;2024-03-02T03:28:35;0.67;;;0.67;;
795;SDS011;381;48.770;9.188;2024-03-02T03:33:37;0.50;;;0.50;;
795;SDS011;381;48.770;9.188;2024-03-02T03:38:41;0.70;;;0.70;;
795;SDS011;381;48.770;9.188;2024-03-02T03:43:43;0.80;;;0.80;;
795;SDS011;381;48.770;9.188;2024-03-02T03:48:45;0.67;;;0.67;;
795;SDS011;381;48.770;9.188;2024-03-02T03:53:49;0.77;;;0.77;;
795;SDS011;381;48.770;9.188;2024-03-02T03:58:51;0.70;;;0.70;;
795;SDS011;381;48.770;9.188;2024-03-02T04:03:54;0.70;;;0.70;;
795;SDS011;381;48.770;9.188;2024-03-02T04:08:57;0.80;;;0.80;;
795;SDS011;381;48.770;9.188;2024-03-02T04:14:00;0.70;;;0.70;;
795;SDS011;381;48.770;9.188;2024-03-02T04:19:02;0.70;;;0.70;;
795;SDS011;381;48.770;9.188;2024-03-02T04:24:06;0.60;;;0.60;;
795;SDS011;381;48.770;9.188;2024-03-02T04:29:08;1.00;;;1.00;;
795;SDS011;381;48.770;9.188;2024-03-02T04:34:11;0.70;;;0.70;;
795;SDS011;381;48.770;9.188;2024-03-02T04:39:14;0.77;;;0.77;;
795;SDS011;381;48.770;9.188;2024-03-02T04:44:17;0.60;;;0.60;;
795;SDS011;381;48.770;9.188;2024-03-02T04:49:19;0.87;;;0.87;;
795;SDS011;381;48.770;9.188;2024-03-02T04:54:23;0.50;;;0.50;;
795;SDS011;381;48.770;9.188;2024-03-02T04:59:26;0.60;;;0.60;;
795;SDS011;381;48.770;9.188;2024-03-02T05:04:28;0.50;;;0.50;;
795;SDS011;381;48.770;9.188;2024-03-02T05:09:32;0.60;;;0.60;;
795;SDS011;381;48.770;9.188;2024-03-02T05:14:35;0.63;;;0.63;;
795;SDS011;381;48.770;9.188;2024-03-02T05:19:38;0.90;;;0.90;;
795;SDS011;381;48.770;9.188;2024-03-02T05:24:41;0.70;;;0.70;;
795;SDS011;381;48.770;9.188;2024-03-02T05:29:44;0.60;;;0.60;;
795;SDS011;381;48.770;9.188;2024-03-02T05:34:46;0.73;;;0.73;;
795;SDS011;381;48.770;9.188;2024-03-02T05:39:50;0.57;;;0.57;;
795;SDS011;381;48.770;9.188;2024-03-02T05:44:52;0.60;;;0.60;;
795;SDS011;381;48.770;9.188;2024-03-02T05:49:54;0.53;;;0.53;;
795;SDS011;381;48.770;9.188;2024-03-02T05:54:58;0.80;;;0.80;;
795;SDS011;381;48.770;9.188;2024-03-02T06:00:00;0.60;;;0.60;;
795;SDS011;381;48.770;9.188;2024-03-02T06:05:13;0.70;;;0.70;;
795;SDS011;381;48.770;9.188;2024-03-02T06:10:17;0.70;;;0.70;;
795;SDS011;381;48.770;9.188;2024-03-02T06:15:21;0.30;;;0.30;;
795;SDS011;381;48.770;9.188;2024-03-02T06:20:23;0.50;;;0.50;;
795;SDS011;381;48.770;9.188;2024-03-02T06:25:28;0.50;;;0.50;;
795;SDS011;381;48.770;9.188;2024-03-02T06:30:31;0.70;;;0.70;;
795;SDS011;381;48.770;9.188;2024-03-02T06:35:33;0.70;;;0.70;;
795;SDS011;381;48.770;9.188;2024-03-02T06:40:37;0.70;;;0.70;;
795;SDS011;381;48.770;9.188;2024-03-02T06:45:40;0.50;;;0.50;;
795;SDS011;381;48.770;9.188;2024-03-02T06:50:42;0.70;;;0.70;;
795;SDS011;381;48.770;9.188;2024-03-02T06:55:46;0.30;;;0.30;;
795;SDS011;381;48.770;9.188;2024-03-02T07:00:49;0.30;;;0.30;;
795;SDS011;381;48.770;9.188;2024-03-02T07:05:53;0.50;;;0.50;;
795;SDS011;381;48.770;9.188;2024-03-02T07:10:57;0.70;;;0.70;;
795;SDS011;381;48.770;9.188;2024-03-02T07:16:01;0.57;;;0.57;;
795;SDS011;381;48.770;9.188;2024-03-02T07:21:21;0.50;;;0.50;;
795;SDS011;381;48.770;9.188;2024-03-02T07:26:25;0.60;;;0.60;;
795;SDS011;381;48.770;9.188;2024-03-02T07:31:28;0.50;;;0.50;;
795;SDS011;381;48.770;9.188;2024-03-02T07:36:30;0.57;;;0.57;;
795;SDS011;381;48.770;9.188;2024-03-02T07:41:34;0.50;;;0.50;;
795;SDS011;381;48.770;9.188;2024-03-02T07:46:36;0.40;;;0.40;;
795;SDS011;381;48.770;9.188;2024-03-02T07:51:39;0.50;;;0.50;;
795;SDS011;381;48.770;9.188;2024-03-02T07:56:43;0.50;;;0.50;;
795;SDS011;381;48.770;9.188;2024-03-02T08:01:46;0.40;;;0.40;;
795;SDS011;381;48.770;9.188;2024-03-02T08:06:50;0.40;;;0.40;;
795;SDS011;381;48.770;9.188;2024-03-02T08:11:54;0.50;;;0.50;;
795;SDS011;381;48.770;9.188;2024-03-02T08:16:57;0.33;;;0.33;;
795;SDS011;381;48.770;9.188;2024-03-02T08:21:59;0.40;;;0.40;;
795;SDS011;381;48.770;9.188;2024-03-02T08:27:04;0.40;;;0.40;;
795;SDS011;381;48.770;9.188;2024-03-02T08:32:06;0.33;;;0.33;;
795;SDS011;381;48.770;9.188;2024-03-02T08:37:08;0.40;;;0.40;;
795;SDS011;381;48.770;9.188;2024-03-02T08:42:12;0.50;;;0.50;;
795;SDS011;381;48.770;9.188;2024-03-02T08:47:15;0.47;;;0.47;;
795;SDS011;381;48.770;9.188;2024-03-02T08:52:17;0.40;;;0.40;;
795;SDS011;381;48.770;9.188;2024-03-02T08:57:21;0.40;;;0.40;;
795;SDS011;381;48.770;9.188;2024-03-02T09:02:26;0.50;;;0.50;;
795;SDS011;381;48.770;9.188;2024-03-02T09:07:28;0.30;;;0.30;;
795;SDS011;381;48.770;9.188;2024-03-02T09:12:32;0.30;;;0.30;;
795;SDS011;381;48.770;9.188;2024-03-02T09:17:35;0.30;;;0.30;;
795;SDS011;381;48.770;9.188;2024-03-02T09:22:37;0.30;;;0.30;;
795;SDS011;381;48.770;9.188;2024-03-02T09:27:41;0.40;;;0.40;;
795;SDS011;381;48.770;9.188;2024-03-02T09:32:43;0.30;;;0.30;;
795;SDS011;381;48.770;9.188;2024-03-02T09:37:46;0.40;;;0.40;;
795;SDS011;381;48.770;9.188;2024-03-02T09:42:49;0.40;;;0.40;;
795;SDS011;381;48.770;9.188;2024-03-02T09:47:54;0.30;;;0.30;;
795;SDS011;381;48.770;9.188;2024-03-02T09:52:57;0.43;;;0.43;;
795;SDS011;381;48.770;9.188;2024-03-02T09:58:01;0.40;;;0.40;;
795;SDS011;381;48.770;9.188;2024-03-02T10:03:04;0.40;;;0.40;;
795;SDS011;381;48.770;9.188;2024-03-02T10:08:07;0.40;;;0.40;;
795;SDS011;381;48.770;9.188;2024-03-02T10:13:11;0.40;;;0.40;;
795;SDS011;381;48.770;9.188;2024-03-02T10:18:14;0.40;;;0.40;;
795;SDS011;381;48.770;9.188;2024-03-02T10:23:28;0.30;;;0.30;;
795;SDS011;381;48.770;9.188;2024-03-02T10:28:32;0.30;;;0.30;;
795;SDS011;381;48.770;9.188;2024-03-02T10:33:35;0.40;;;0.40;;
795;SDS011;381;48.770;9.188;2024-03-02T10:38:37;0.40;;;0.40;;
795;SDS011;381;48.770;9.188;2024-03-02T10:43:44;0.30;;;0.30;;
795;SDS011;381;48.770;9.188;2024-03-02T10:48:48;0.40;;;0.40;;
795;SDS011;381;48.770;9.188;2024-03-02T10:53:51;0.30;;;0.30;;
795;SDS011;381;48.770;9.188;2024-03-02T10:58:55;0.40;;;0.40;;
795;SDS011;381;48.770;9.188;2024-03-02T11:04:04;0.40;;;0.40;;
795;SDS011;381;48.770;9.188;2024-03-02T11:09:09;0.40;;;0.40;;
795;SDS011;381;48.770;9.188;2024-03-02T11:14:16;0.40;;;0.40;;
795;SDS011;381;48.770;9.188;2024-03-02T11:19:21;0.40;;;0.40;;
795;SDS011;381;48.770;9.188;2024-03-02T11:24:28;0.50;;;0.50;;
795;SDS011;381;48.770;9.188;2024-03-02T11:34:45;0.40;;;0.40;;
795;SDS011;381;48.770;9.188;2024-03-02T11:39:49;0.57;;;0.57;;
795;SDS011;381;48.770;9.188;2024-03-02T11:44:52;0.50;;;0.50;;
795;SDS011;381;48.770;9.188;2024-03-02T11:50:00;0.37;;;0.37;;
795;SDS011;381;48.770;9.188;2024-03-02T11:55:02;0.50;;;0.50;;
795;SDS011;381;48.770;9.188;2024-03-02T12:00:16;0.40;;;0.40;;
795;SDS011;381;48.770;9.188;2024-03-02T12:05:20;0.30;;;0.30;;
795;SDS011;381;48.770;9.188;2024-03-02T12:10:23;0.40;;;0.40;;
795;SDS011;381;48.770;9.188;2024-03-02T12:15:25;0.30;;;0.30;;
795;SDS011;381;48.770;9.188;2024-03-02T12:20:30;0.40;;;0.40;;
795;SDS011;381;48.770;9.188;2024-03-02T12:25:33;0.40;;;0.40;;
795;SDS011;381;48.770;9.188;2024-03-02T12:30:35;0.50;;;0.50;;
795;SDS011;381;48.770;9.188;2024-03-02T12:35:39;0.40;;;0.40;;
795;SDS011;381;48.770;9.188;2024-03-02T12:40:43;0.40;;;0.40;;
795;SDS011;381;48.770;9.188;2024-03-02T12:45:45;0.40;;;0.40;;
795;SDS011;381;48.770;9.188;2024-03-02T12:50:49;0.40;;;0.40;;
795;SDS011;381;48.770;9.188;2024-03-02T12:55:52;0.30;;;0.30;;
795;SDS011;381;48.770;9.188;2024-03-02T13:01:05;0.40;;;0.40;;
795;SDS011;381;48.770;9.188;2024-03-02T13:06:10;0.40;;;0.40;;
795;SDS011;381;48.770;9.188;2024-03-02T13:11:13;0.40;;;0.40;;
795;SDS011;381;48.770;9.188;2024-03-02T13:16:15;0.30;;;0.30;;
795;SDS011;381;48.770;9.188;2024-03-02T13:21:20;0.30;;;0.30;;
795;SDS011;381;48.770;9.188;2024-03-02T13:26:22;0.30;;;0.30;;
795;SDS011;381;48.770;9.188;2024-03-02T13:31:25;0.30;;;0.30;;
795;SDS011;381;48.770;9.188;2024-03-02T13:36:29;0.40;;;0.40;;
795;SDS011;381;48.770;9.188;2024-03-02T13:41:31;0.37;;;0.37;;
795;SDS011;381;48.770;9.188;2024-03-02T13:46:33;0.40;;;0.40;;
795;SDS011;381;48.770;9.188;2024-03-02T13:51:37;0.30;;;0.30;;
795;SDS011;381;48.770;9.188;2024-03-02T13:56:39;0.30;;;0.30;;
795;SDS011;381;48.770;9.188;2024-03-02T14:01:42;0.30;;;0.30;;
795;SDS011;381;48.770;9.188;2024-03-02T14:06:46;0.30;;;0.30;;
795;SDS011;381;48.770;9.188;2024-03-02T14:11:49;0.30;;;0.30;;
795;SDS011;381;48.770;9.188;2024-03-02T14:16:52;0.40;;;0.40;;
795;SDS011;381;48.770;9.188;2024-03-02T14:21:58;0.30;;;0.30;;
795;SDS011;381;48.770;9.188;2024-03-02T14:27:00;0.30;;;0.30;;
795;SDS011;381;48.770;9.188;2024-03-02T14:32:05;0.30;;;0.30;;
795;SDS011;381;48.770;9.188;2024-03-02T14:37:09;0.40;;;0.40;;
795;SDS011;381;48.770;9.188;2024-03-02T14:42:11;0.30;;;0.30;;
795;SDS011;381;48.770;9.188;2024-03-02T14:47:14;0.50;;;0.50;;
795;SDS011;381;48.770;9.188;2024-03-02T14:52:18;0.30;;;0.30;;
795;SDS011;381;48.770;9.188;2024-03-02T14:57:20;0.40;;;0.40;;
795;SDS011;381;48.770;9.188;2024-03-02T15:02:22;0.40;;;0.40;;
795;SDS011;381;48.770;9.188;2024-03-02T15:07:26;0.40;;;0.40;;
795;SDS011;381;48.770;9.188;2024-03-02T15:12:29;0.33;;;0.33;;
795;SDS011;381;48.770;9.188;2024-03-02T15:17:31;0.40;;;0.40;;
795;SDS011;381;48.770;9.188;2024-03-02T15:22:35;0.30;;;0.30;;
795;SDS011;381;48.770;9.188;2024-03-02T15:27:38;0.30;;;0.30;;
795;SDS011;381;48.770;9.188;2024-03-02T15:32:40;0.20;;;0.20;;
795;SDS011;381;48.770;9.188;2024-03-02T15:37:44;0.30;;;0.30;;
795;SDS011;381;48.770;9.188;2024-03-02T15:42:46;0.30;;;0.30;;
795;SDS011;381;48.770;9.188;2024-03-02T15:47:49;0.30;;;0.30;;
795;SDS011;381;48.770;9.188;2024-03-02T15:52:52;0.30;;;0.30;;
795;SDS011;381;48.770;9.188;2024-03-02T15:57:56;0.30;;;0.30;;
795;SDS011;381;48.770;9.188;2024-03-02T16:02:59;0.30;;;0.30;;
795;SDS011;381;48.770;9.188;2024-03-02T16:08:03;0.30;;;0.30;;
795;SDS011;381;48.770;9.188;2024-03-02T16:13:06;0.30;;;0.30;;
795;SDS011;381;48.770;9.188;2024-03-02T16:18:08;0.40;;;0.40;;
795;SDS011;381;48.770;9.188;2024-03-02T16:23:12;0.30;;;0.30;;
795;SDS011;381;48.770;9.188;2024-03-02T16:28:14;0.30;;;0.30;;
795;SDS011;381;48.770;9.188;2024-03-02T16:33:16;0.30;;;0.30;;
795;SDS011;381;48.770;9.188;2024-03-02T16:38:20;0.30;;;0.30;;
795;SDS011;381;48.770;9.188;2024-03-02T16:43:23;0.10;;;0.10;;
795;SDS011;381;48.770;9.188;2024-03-02T16:48:25;0.30;;;0.30;;
795;SDS011;381;48.770;9.188;2024-03-02T16:53:29;0.40;;;0.40;;
795;SDS011;381;48.770;9.188;2024-03-02T16:58:31;0.30;;;0.30;;
795;SDS011;381;48.770;9.188;2024-03-02T17:03:33;0.30;;;0.30;;
795;SDS011;381;48.770;9.188;2024-03-02T17:08:37;0.30;;;0.30;;
795;SDS011;381;48.770;9.188;2024-03-02T17:13:39;0.30;;;0.30;;
795;SDS011;381;48.770;9.188;2024-03-02T17:18:42;0.30;;;0.30;;
795;SDS011;381;48.770;9.188;2024-03-02T17:23:45;0.40;;;0.40;;
795;SDS011;381;48.770;9.188;2024-03-02T17:28:48;0.47;;;0.47;;
795;SDS011;381;48.770;9.188;2024-03-02T17:33:51;0.40;;;0.40;;
795;SDS011;381;48.770;9.188;2024-03-02T17:38:55;0.30;;;0.30;;
795;SDS011;381;48.770;9.188;2024-03-02T17:43:58;0.30;;;0.30;;
795;SDS011;381;48.770;9.188;2024-03-02T17:49:00;0.40;;;0.40;;
795;SDS011;381;48.770;9.188;2024-03-02T17:54:04;0.40;;;0.40;;
795;SDS011;381;48.770;9.188;2024-03-02T17:59:06;0.30;;;0.30;;
795;SDS011;381;48.770;9.188;2024-03-02T18:04:09;0.07;;;0.07;;
795;SDS011;381;48.770;9.188;2024-03-02T18:09:13;0.50;;;0.50;;
795;SDS011;381;48.770;9.188;2024-03-02T18:14:15;0.40;;;0.40;;
795;SDS011;381;48.770;9.188;2024-03-02T18:19:17;0.40;;;0.40;;
795;SDS011;381;48.770;9.188;2024-03-02T18:24:21;0.30;;;0.30;;
795;SDS011;381;48.770;9.188;2024-03-02T18:29:27;0.40;;;0.40;;
795;SDS011;381;48.770;9.188;2024-03-02T18:34:29;0.40;;;0.40;;
795;SDS011;381;48.770;9.188;2024-03-02T18:39:33;0.30;;;0.30;;
795;SDS011;381;48.770;9.188;2024-03-02T18:44:36;0.40;;;0.40;;
795;SDS011;381;48.770;9.188;2024-03-02T18:49:41;0.40;;;0.40;;
795;SDS011;381;48.770;9.188;2024-03-02T18:54:46;0.30;;;0.30;;
795;SDS011;381;48.770;9.188;2024-03-02T18:59:49;0.40;;;0.40;;
795;SDS011;381;48.770;9.188;2024-03-02T19:04:51;0.50;;;0.50;;
795;SDS011;381;48.770;9.188;2024-03-02T19:09:55;0.30;;;0.30;;
795;SDS011;381;48.770;9.188;2024-03-02T19:14:57;0.40;;;0.40;;
795;SDS011;381;48.770;9.188;2024-03-02T19:20:01;0.30;;;0.30;;
795;SDS011;381;48.770;9.188;2024-03-02T19:25:05;0.30;;;0.30;;
795;SDS011;381;48.770;9.188;2024-03-02T19:30:11;0.10;;;0.10;;
795;SDS011;381;48.770;9.188;2024-03-02T19:35:13;0.30;;;0.30;;
795;SDS011;381;48.770;9.188;2024-03-02T19:40:17;0.30;;;0.30;;
795;SDS011;381;48.770;9.188;2024-03-02T19:45:20;0.30;;;0.30;;
795;SDS011;381;48.770;9.188;2024-03-02T19:50:22;0.37;;;0.37;;
795;SDS011;381;48.770;9.188;2024-03-02T19:55:26;0.30;;;0.30;;
795;SDS011;381;48.770;9.188;2024-03-02T20:00:31;0.30;;;0.30;;
795;SDS011;381;48.770;9.188;2024-03-02T20:05:33;0.30;;;0.30;;
795;SDS011;381;48.770;9.188;2024-03-02T20:10:37;0.40;;;0.40;;
795;SDS011;381;48.770;9.188;2024-03-02T20:15:39;0.30;;;0.30;;
795;SDS011;381;48.770;9.188;2024-03-02T20:20:42;0.30;;;0.30;;
795;SDS011;381;48.770;9.188;2024-03-02T20:25:45;0.50;;;0.50;;
795;SDS011;381;48.770;9.188;2024-03-02T20:30:48;0.30;;;0.30;;
795;SDS011;381;48.770;9.188;2024-03-02T20:35:50;0.40;;;0.40;;
795;SDS011;381;48.770;9.188;2024-03-02T20:40:54;0.30;;;0.30;;
795;SDS011;381;48.770;9.188;2024-03-02T20:45:56;0.40;;;0.40;;
795;SDS011;381;48.770;9.188;2024-03-02T20:51:05;0.30;;;0.30;;
795;SDS011;381;48.770;9.188;2024-03-02T20:56:09;0.40;;;0.40;;
795;SDS011;381;48.770;9.188;2024-03-02T21:01:12;0.30;;;0.30;;
795;SDS011;381;48.770;9.188;2024-03-02T21:06:14;0.30;;;0.30;;
795;SDS011;381;48.770;9.188;2024-03-02T21:11:18;0.40;;;0.40;;
795;SDS011;381;48.770;9.188;2024-03-02T21:16:22;0.40;;;0.40;;
795;SDS011;381;48.770;9.188;2024-03-02T21:21:25;0.40;;;0.40;;
795;SDS011;381;48.770;9.188;2024-03-02T21:26:30;0.20;;;0.20;;
795;SDS011;381;48.770;9.188;2024-03-02T21:31:32;0.30;;;0.30;;
795;SDS011;381;48.770;9.188;2024-03-02T21:36:35;0.40;;;0.40;;
795;SDS011;381;48.770;9.188;2024-03-02T21:41:39;0.27;;;0.27;;
795;SDS011;381;48.770;9.188;2024-03-02T21:46:42;0.40;;;0.40;;
795;SDS011;381;48.770;9.188;2024-03-02T21:51:46;0.47;;;0.47;;
795;SDS011;381;48.770;9.188;2024-03-02T21:56:49;0.50;;;0.50;;
795;SDS011;381;48.770;9.188;2024-03-02T22:01:52;0.50;;;0.50;;
795;SDS011;381;48.770;9.188;2024-03-02T22:06:54;0.30;;;0.30;;
795;SDS011;381;48.770;9.188;2024-03-02T22:11:58;0.50;;;0.50;;
795;SDS011;381;48.770;9.188;2024-03-02T22:17:01;0.40;;;0.40;;
795;SDS011;381;48.770;9.188;2024-03-02T22:22:04;0.40;;;0.40;;
795;SDS011;381;48.770;9.188;2024-03-02T22:27:08;0.30;;;0.30;;
795;SDS011;381;48.770;9.188;2024-03-02T22:32:10;0.40;;;0.40;;
795;SDS011;381;48.770;9.188;2024-03-02T22:37:13;0.40;;;0.40;;
795;SDS011;381;48.770;9.188;2024-03-02T22:42:16;0.40;;;0.40;;
795;SDS011;381;48.770;9.188;2024-03-02T22:47:19;0.40;;;0.40;;
795;SDS011;381;48.770;9.188;2024-03-02T22:52:21;0.43;;;0.43;;
795;SDS011;381;48.770;9.188;2024-03-02T22:57:25;0.40;;;0.40;;
795;SDS011;381;48.770;9.188;2024-03-02T23:02:27;0.30;;;0.30;;
795;SDS011;381;48.770;9.188;2024-03-02T23:07:29;0.30;;;0.30;;
795;SDS011;381;48.770;9.188;2024-03-02T23:12:33;0.40;;;0.40;;
795;SDS011;381;48.770;9.188;2024-03-02T23:17:36;0.30;;;0.30;;
795;SDS011;381;48.770;9.188;2024-03-02T23:22:38;0.40;;;0.40;;
795;SDS011;381;48.770;9.188;2024-03-02T23:27:44;0.50;;;0.50;;
795;SDS011;381;48.770;9.188;2024-03-02T23:32:46;0.40;;;0.40;;
795;SDS011;381;48.770;9.188;2024-03-02T23:37:49;0.40;;;0.40;;
795;SDS011;381;48.770;9.188;2024-03-02T23:42:55;0.40;;;0.40;;
795;SDS011;381;48.770;9.188;2024-03-02T23:47:57;0.70;;;0.70;;
795;SDS011;381;48.770;9.188;2024-03-02T23:52:59;0.50;;;0.50;;
795;SDS011;381;48.770;9.188;2024-03-02T23:58:03;0.50;;;0.50;;
